createdAt,value
2022-12-09T00:01:14.868Z,57.35
2022-12-09T00:04:02.750Z,57.40
2022-12-09T00:06:50.574Z,59.35
2022-12-09T00:09:38.231Z,57.55
2022-12-09T00:12:12.032Z,52.50
2022-12-09T00:14:45.558Z,56.28
2022-12-09T00:17:23.575Z,57.30
2022-12-09T00:20:05.709Z,57.50
2022-12-09T00:22:50.580Z,52.85
2022-12-09T00:25:39.428Z,49.42
2022-12-09T00:28:19.926Z,54.83
2022-12-09T00:31:02.382Z,56.70
2022-12-09T00:33:51.760Z,56.88
2022-12-09T00:36:32.942Z,54.65
2022-12-09T00:39:17.893Z,52.00
2022-12-09T00:42:02.739Z,59.25
2022-12-09T00:44:36.268Z,59.10
2022-12-09T00:47:18.712Z,61.80
2022-12-09T00:50:01.018Z,50.55
2022-12-09T00:52:48.847Z,55.35
2022-12-09T00:55:35.149Z,52.38
2022-12-09T00:58:22.992Z,62.35
2022-12-09T01:01:10.788Z,61.60
2022-12-09T01:03:45.252Z,56.58
2022-12-09T01:06:35.304Z,59.83
2022-12-09T01:09:18.666Z,52.83
2022-12-09T01:11:58.485Z,52.88
2022-12-09T01:14:35.249Z,63.60
2022-12-09T01:17:14.342Z,55.33
2022-12-09T01:19:54.694Z,60.45
2022-12-09T01:22:41.687Z,59.38
2022-12-09T01:25:19.812Z,66.65
2022-12-09T01:28:07.424Z,59.80
2022-12-09T01:30:55.218Z,54.05
2022-12-09T01:33:43.555Z,64.25
2022-12-09T01:36:31.722Z,54.53
2022-12-09T01:39:11.593Z,61.08
2022-12-09T01:41:55.532Z,55.88
2022-12-09T01:44:34.500Z,60.38
2022-12-09T01:47:22.892Z,68.22
2022-12-09T01:49:56.144Z,58.00
2022-12-09T01:52:25.072Z,60.20
2022-12-09T01:54:56.092Z,65.22
2022-12-09T01:57:32.416Z,66.43
2022-12-09T02:00:10.092Z,58.42
2022-12-09T02:03:04.023Z,57.38
2022-12-09T02:05:40.672Z,53.70
2022-12-09T02:08:23.456Z,60.97
2022-12-09T02:11:31.452Z,41.72
2022-12-09T02:14:27.819Z,58.58
2022-12-09T02:17:25.071Z,54.35
2022-12-09T02:19:56.056Z,60.55
2022-12-09T02:22:26.871Z,64.90
2022-12-09T02:24:59.068Z,61.50
2022-12-09T02:27:38.289Z,65.80
2022-12-09T02:30:23.882Z,65.50
2022-12-09T02:33:07.925Z,62.65
2022-12-09T02:35:40.033Z,66.38
2022-12-09T02:38:08.494Z,62.00
2022-12-09T02:40:40.624Z,66.55
2022-12-09T02:43:11.082Z,59.13
2022-12-09T02:45:44.053Z,61.58
2022-12-09T02:48:25.451Z,62.83
2022-12-09T02:51:04.309Z,70.40
2022-12-09T02:53:53.687Z,62.00
2022-12-09T02:56:42.456Z,62.47
2022-12-09T02:59:27.830Z,52.28
2022-12-09T03:02:13.064Z,57.80
2022-12-09T03:05:16.248Z,55.20
2022-12-09T03:08:00.454Z,58.60
2022-12-09T03:10:39.923Z,53.38
2022-12-09T03:13:15.165Z,61.63
2022-12-09T03:15:46.814Z,50.63
2022-12-09T03:18:20.287Z,61.97
2022-12-09T03:20:50.487Z,53.13
2022-12-09T03:23:20.256Z,64.97
2022-12-09T03:25:53.193Z,54.20
2022-12-09T03:28:31.257Z,54.80
2022-12-09T03:31:14.222Z,53.33
2022-12-09T03:34:02.863Z,66.00
2022-12-09T03:36:45.973Z,58.17
2022-12-09T03:39:34.394Z,53.97
2022-12-09T03:45:06.272Z,52.15
2022-12-09T03:47:54.294Z,59.45
2022-12-09T03:50:35.197Z,57.83
2022-12-09T03:53:22.674Z,55.58
2022-12-09T03:56:09.014Z,57.75
2022-12-09T03:58:44.627Z,52.55
2022-12-09T04:01:13.958Z,49.35
2022-12-09T04:03:57.757Z,50.88
2022-12-09T04:06:32.240Z,49.40
2022-12-09T04:09:08.280Z,49.38
2022-12-09T04:11:48.137Z,50.88
2022-12-09T04:14:22.413Z,51.42
2022-12-09T04:17:02.427Z,50.90
2022-12-09T04:19:44.597Z,52.30
2022-12-09T04:22:30.782Z,52.10
2022-12-09T04:25:13.187Z,50.63
2022-12-09T04:28:00.627Z,45.25
2022-12-09T04:30:48.316Z,51.65
2022-12-09T04:33:28.441Z,55.10
2022-12-09T04:36:06.873Z,52.05
2022-12-09T04:38:49.556Z,50.78
2022-12-09T04:41:37.673Z,47.75
2022-12-09T04:44:25.359Z,44.10
2022-12-09T04:47:08.015Z,49.50
2022-12-09T04:49:58.369Z,49.10
2022-12-09T04:52:46.225Z,53.30
2022-12-09T04:55:27.424Z,55.17
2022-12-09T04:58:08.486Z,49.05
2022-12-09T05:00:56.154Z,44.42
2022-12-09T05:03:44.338Z,52.72
2022-12-09T05:06:31.331Z,46.63
2022-12-09T05:09:16.889Z,53.67
2022-12-09T05:11:58.057Z,49.95
2022-12-09T05:14:38.416Z,52.13
2022-12-09T05:17:25.399Z,47.35
2022-12-09T05:20:16.010Z,49.53
2022-12-09T05:23:07.456Z,51.55
2022-12-09T05:25:56.034Z,49.42
2022-12-09T05:28:41.643Z,50.83
2022-12-09T05:31:25.297Z,51.63
2022-12-09T05:34:07.804Z,46.72
2022-12-09T05:36:52.016Z,59.13
2022-12-09T05:39:33.918Z,52.40
2022-12-09T05:42:20.572Z,51.88
2022-12-09T05:45:07.234Z,51.72
2022-12-09T05:47:55.028Z,46.42
2022-12-09T05:50:34.805Z,48.22
2022-12-09T05:53:17.254Z,54.80
2022-12-09T05:55:54.924Z,54.95
2022-12-09T05:58:36.212Z,46.08
2022-12-09T06:01:15.582Z,45.60
2022-12-09T06:04:03.859Z,51.10
2022-12-09T06:06:51.806Z,53.17
2022-12-09T06:09:38.150Z,43.45
2022-12-09T06:12:28.151Z,50.63
2022-12-09T06:15:21.290Z,44.45
2022-12-09T06:18:05.699Z,52.58
2022-12-09T06:20:51.295Z,48.38
2022-12-09T06:23:42.218Z,43.17
2022-12-09T06:26:30.892Z,48.45
2022-12-09T06:29:15.289Z,45.15
2022-12-09T06:31:58.419Z,40.95
2022-12-09T06:34:33.640Z,36.13
2022-12-09T06:37:12.726Z,36.10
2022-12-09T06:39:58.851Z,37.42
2022-12-09T06:42:46.913Z,40.33
2022-12-09T06:45:32.089Z,39.03
2022-12-09T06:48:13.826Z,39.15
2022-12-09T06:50:58.068Z,41.80
2022-12-09T06:53:37.367Z,43.85
2022-12-09T06:56:14.420Z,42.30
2022-12-09T06:58:58.715Z,41.58
2022-12-09T07:01:38.558Z,38.88
2022-12-09T07:04:08.470Z,40.10
2022-12-09T07:06:42.016Z,39.75
2022-12-09T07:09:15.986Z,39.22
2022-12-09T07:12:04.201Z,44.60
2022-12-09T07:14:51.541Z,37.83
2022-12-09T07:17:39.238Z,38.00
2022-12-09T07:20:13.323Z,47.38
2022-12-09T07:22:45.481Z,42.95
2022-12-09T07:25:24.555Z,53.53
2022-12-09T07:28:12.048Z,50.65
2022-12-09T07:31:00.044Z,41.42
2022-12-09T07:33:45.536Z,40.47
2022-12-09T07:36:29.696Z,50.00
2022-12-09T07:39:17.971Z,47.85
2022-12-09T07:42:08.289Z,45.63
2022-12-09T07:44:49.158Z,45.25
2022-12-09T07:47:18.166Z,46.30
2022-12-09T07:49:47.864Z,47.70
2022-12-09T07:52:16.938Z,47.33
2022-12-09T07:54:47.809Z,86.43
2022-12-09T07:57:18.497Z,101.68
2022-12-09T07:59:54.099Z,119.45
2022-12-09T08:02:44.333Z,102.18
2022-12-09T08:05:32.246Z,87.03
2022-12-09T08:08:21.055Z,97.25
2022-12-09T08:11:09.468Z,91.13
2022-12-09T08:13:58.310Z,87.22
2022-12-09T08:16:46.244Z,88.72
2022-12-09T08:19:34.688Z,103.10
2022-12-09T08:22:21.794Z,94.00
2022-12-09T08:25:13.462Z,92.45
2022-12-09T08:28:00.603Z,100.97
2022-12-09T08:30:49.348Z,74.35
2022-12-09T08:33:34.351Z,75.57
2022-12-09T08:36:04.646Z,64.22
2022-12-09T08:38:37.178Z,67.95
2022-12-09T08:42:25.543Z,68.25
2022-12-09T08:45:00.339Z,68.95
2022-12-09T08:47:37.956Z,74.40
2022-12-09T08:50:09.943Z,70.40
2022-12-09T08:52:52.646Z,72.82
2022-12-09T08:55:43.027Z,74.80
2022-12-09T08:58:21.290Z,76.90
2022-12-09T09:01:01.863Z,69.00
2022-12-09T09:03:44.860Z,73.70
2022-12-09T09:06:14.275Z,69.90
2022-12-09T09:08:44.205Z,78.80
2022-12-09T09:11:18.696Z,79.75
2022-12-09T09:14:07.761Z,68.40
2022-12-09T09:16:56.213Z,68.30
2022-12-09T09:19:41.714Z,68.55
2022-12-09T09:22:17.060Z,76.00
2022-12-09T09:25:05.116Z,63.60
2022-12-09T09:27:47.242Z,67.47
2022-12-09T09:30:28.622Z,69.35
2022-12-09T09:33:16.868Z,65.60
2022-12-09T09:35:55.390Z,67.85
2022-12-09T09:38:26.390Z,74.00
2022-12-09T09:40:56.224Z,76.63
2022-12-09T09:43:26.603Z,71.88
2022-12-09T09:45:57.128Z,77.07
2022-12-09T09:48:28.888Z,79.22
2022-12-09T09:51:00.778Z,71.30
2022-12-09T09:53:34.180Z,75.88
2022-12-09T09:56:06.460Z,68.40
2022-12-09T09:58:42.798Z,67.07
2022-12-09T10:01:17.137Z,72.78
2022-12-09T10:03:49.297Z,63.00
2022-12-09T10:06:26.125Z,63.67
2022-12-09T10:08:56.695Z,64.35
2022-12-09T10:11:39.411Z,68.47
2022-12-09T10:14:08.065Z,62.95
2022-12-09T10:16:44.716Z,70.93
2022-12-09T10:19:22.690Z,66.47
2022-12-09T10:21:54.673Z,60.80
2022-12-09T10:24:38.877Z,71.00
2022-12-09T10:27:21.848Z,62.65
2022-12-09T10:30:03.818Z,61.65
2022-12-09T10:32:52.710Z,65.70
2022-12-09T10:35:25.805Z,53.22
2022-12-09T10:38:10.371Z,56.13
2022-12-09T10:41:01.348Z,68.95
2022-12-09T10:43:44.732Z,61.47
2022-12-09T10:46:20.448Z,64.72
2022-12-09T10:48:50.527Z,61.80
2022-12-09T10:51:22.221Z,58.30
2022-12-09T10:53:53.394Z,51.00
2022-12-09T10:56:29.175Z,37.70
2022-12-09T10:59:16.713Z,53.50
2022-12-09T11:01:56.713Z,55.75
2022-12-09T11:04:28.582Z,38.75
2022-12-09T11:07:00.803Z,27.65
2022-12-09T11:09:34.919Z,38.17
2022-12-09T11:12:05.997Z,46.47
2022-12-09T11:14:41.571Z,48.95
2022-12-09T11:17:25.056Z,41.92
2022-12-09T11:20:06.228Z,50.30
2022-12-09T11:23:07.491Z,47.15
2022-12-09T11:25:57.761Z,32.55
2022-12-09T11:28:38.026Z,35.50
2022-12-09T11:31:33.971Z,30.95
2022-12-09T11:34:06.412Z,27.35
2022-12-09T11:36:40.381Z,34.00
2022-12-09T11:39:24.167Z,27.80
2022-12-09T11:42:17.037Z,28.90
2022-12-09T11:44:53.453Z,23.83
2022-12-09T11:47:24.311Z,21.70
2022-12-09T11:49:58.455Z,23.58
2022-12-09T11:52:29.095Z,29.42
2022-12-09T11:55:11.491Z,22.63
2022-12-09T11:58:01.766Z,23.80
2022-12-09T12:00:37.375Z,24.38
2022-12-09T12:03:29.395Z,26.17
2022-12-09T12:05:59.065Z,26.52
2022-12-09T12:08:31.002Z,36.45
2022-12-09T12:11:15.104Z,24.73
2022-12-09T12:13:47.892Z,23.80
2022-12-09T12:16:37.707Z,25.23
2022-12-09T12:19:31.175Z,29.23
2022-12-09T12:24:38.281Z,35.85
2022-12-09T12:27:08.627Z,27.90
2022-12-09T12:29:41.894Z,28.80
2022-12-09T12:32:12.933Z,24.60
2022-12-09T12:35:00.047Z,34.50
2022-12-09T12:37:51.257Z,31.42
2022-12-09T12:40:28.409Z,30.70
2022-12-09T12:43:32.972Z,29.08
2022-12-09T12:46:18.659Z,26.98
2022-12-09T12:48:55.837Z,24.17
2022-12-09T12:51:41.443Z,26.30
2022-12-09T12:54:25.189Z,24.60
2022-12-09T12:57:22.694Z,26.13
2022-12-09T12:59:58.860Z,35.60
2022-12-09T13:02:26.954Z,28.50
2022-12-09T13:04:59.933Z,26.65
2022-12-09T13:07:38.489Z,24.02
2022-12-09T13:10:27.939Z,29.60
2022-12-09T13:13:06.707Z,26.80
2022-12-09T13:15:46.346Z,20.55
2022-12-09T13:18:38.746Z,18.83
2022-12-09T13:21:08.135Z,16.52
2022-12-09T13:23:39.834Z,21.45
2022-12-09T13:26:26.218Z,18.38
2022-12-09T13:28:57.554Z,23.10
2022-12-09T13:31:32.788Z,15.68
2022-12-09T13:34:08.748Z,22.55
2022-12-09T13:36:48.040Z,18.65
2022-12-09T13:39:36.000Z,19.33
2022-12-09T13:42:22.018Z,15.65
2022-12-09T13:44:50.327Z,22.95
2022-12-09T13:47:26.550Z,18.20
2022-12-09T13:49:57.888Z,22.40
2022-12-09T13:52:48.676Z,19.95
2022-12-09T13:55:29.035Z,20.30
2022-12-09T13:58:02.991Z,19.65
2022-12-09T14:03:32.095Z,22.90
2022-12-09T14:06:07.614Z,22.05
2022-12-09T14:08:46.870Z,26.95
2022-12-09T14:13:48.570Z,33.90
2022-12-09T14:16:29.335Z,28.27
2022-12-09T14:18:58.017Z,27.08
2022-12-09T14:21:31.621Z,32.50
2022-12-09T14:24:08.947Z,29.48
2022-12-09T14:26:38.185Z,32.55
2022-12-09T14:29:06.312Z,28.02
2022-12-09T14:31:45.562Z,32.80
2022-12-09T14:34:31.546Z,33.35
2022-12-09T14:37:16.986Z,29.10
2022-12-09T14:39:49.138Z,33.30
2022-12-09T14:42:23.370Z,34.53
2022-12-09T14:44:55.091Z,33.15
2022-12-09T14:47:31.321Z,29.38
2022-12-09T14:50:08.731Z,27.83
2022-12-09T14:52:39.054Z,32.20
2022-12-09T14:55:10.047Z,31.35
2022-12-09T14:57:45.878Z,29.88
2022-12-09T15:00:26.599Z,37.53
2022-12-09T15:03:45.304Z,30.33
2022-12-09T15:06:14.286Z,32.53
2022-12-09T15:08:43.085Z,30.02
2022-12-09T15:11:21.742Z,32.80
2022-12-09T15:14:21.396Z,32.05
2022-12-09T15:16:56.721Z,79.85
2022-12-09T15:19:59.823Z,41.72
2022-12-09T15:22:29.978Z,34.47
2022-12-09T15:27:41.869Z,35.10
2022-12-09T15:30:24.027Z,35.30
2022-12-09T15:33:15.136Z,35.58
2022-12-09T15:35:49.083Z,34.42
2022-12-09T15:38:40.888Z,32.63
2022-12-09T15:41:48.494Z,34.67
2022-12-09T15:44:22.814Z,35.22
2022-12-09T15:46:53.309Z,38.65
2022-12-09T15:49:29.367Z,42.83
2022-12-09T15:51:58.168Z,38.47
2022-12-09T15:54:30.192Z,33.63
2022-12-09T15:57:00.365Z,37.78
2022-12-09T15:59:43.048Z,34.42
2022-12-09T16:02:12.780Z,38.58
2022-12-09T16:04:46.203Z,38.90
2022-12-09T16:07:33.863Z,35.78
2022-12-09T16:10:26.544Z,34.22
2022-12-09T16:13:14.320Z,38.60
2022-12-09T16:15:52.849Z,38.92
2022-12-09T16:18:26.031Z,40.63
2022-12-09T16:21:17.463Z,39.03
2022-12-09T16:23:49.886Z,39.97
2022-12-09T16:26:29.447Z,36.22
2022-12-09T16:29:16.857Z,41.83
2022-12-09T16:31:45.503Z,35.53
2022-12-09T16:34:21.326Z,36.55
2022-12-09T16:36:56.172Z,38.45
2022-12-09T16:39:24.684Z,35.10
2022-12-09T16:42:28.279Z,41.95
2022-12-09T16:45:20.716Z,38.53
2022-12-09T16:47:55.635Z,41.50
2022-12-09T16:50:28.459Z,49.78
2022-12-09T16:52:58.649Z,49.85
2022-12-09T16:55:32.100Z,42.95
2022-12-09T16:58:01.118Z,43.70
2022-12-09T17:00:31.055Z,46.47
2022-12-09T17:03:23.911Z,54.28
2022-12-09T17:05:55.145Z,44.30
2022-12-09T17:08:26.039Z,43.67
2022-12-09T17:10:54.561Z,42.17
2022-12-09T17:13:26.163Z,44.97
2022-12-09T17:15:58.335Z,45.55
2022-12-09T17:18:33.335Z,49.50
2022-12-09T17:21:05.263Z,52.55
2022-12-09T17:23:39.659Z,58.63
2022-12-09T17:26:10.461Z,59.28
2022-12-09T17:28:39.519Z,57.08
2022-12-09T17:31:27.406Z,58.17
2022-12-09T17:34:15.247Z,53.03
2022-12-09T17:37:02.908Z,61.55
2022-12-09T17:39:58.297Z,63.15
2022-12-09T17:42:37.126Z,64.68
2022-12-09T17:45:07.751Z,57.58
2022-12-09T17:47:44.276Z,65.53
2022-12-09T17:50:12.884Z,66.53
2022-12-09T17:52:43.911Z,64.85
2022-12-09T17:55:13.582Z,70.30
2022-12-09T17:57:52.667Z,62.03
2022-12-09T18:00:25.187Z,64.10
2022-12-09T18:03:17.713Z,68.35
2022-12-09T18:06:08.849Z,67.85
2022-12-09T18:08:58.872Z,67.45
2022-12-09T18:11:46.845Z,70.40
2022-12-09T18:14:16.530Z,63.88
2022-12-09T18:16:49.156Z,63.50
2022-12-09T18:19:20.319Z,65.35
2022-12-09T18:21:49.289Z,68.95
2022-12-09T18:24:18.823Z,64.57
2022-12-09T18:26:47.577Z,63.33
2022-12-09T18:29:18.644Z,74.97
2022-12-09T18:34:46.423Z,77.80
2022-12-09T18:37:41.930Z,74.00
2022-12-09T18:41:01.860Z,72.57
2022-12-09T18:43:45.678Z,77.55
2022-12-09T18:46:26.919Z,80.82
2022-12-09T18:49:14.060Z,79.65
2022-12-09T18:52:36.460Z,77.22
2022-12-09T19:38:06.929Z,87.65
2022-12-09T19:40:42.428Z,86.88
2022-12-09T19:43:13.538Z,93.80
2022-12-09T19:45:44.160Z,91.35
2022-12-09T19:48:31.866Z,95.85
2022-12-09T19:51:20.253Z,100.13
2022-12-09T19:54:07.946Z,102.65
2022-12-09T19:56:39.515Z,99.60
2022-12-09T19:59:25.309Z,98.57
2022-12-09T20:02:13.983Z,89.13
2022-12-09T20:05:01.603Z,88.75
2022-12-09T20:07:49.436Z,88.13
2022-12-09T20:10:18.679Z,94.90
2022-12-09T20:12:51.040Z,88.57
2022-12-09T20:15:19.308Z,92.57
2022-12-09T20:17:53.481Z,95.18
2022-12-09T20:20:25.802Z,92.82
2022-12-09T20:22:59.014Z,100.40
2022-12-09T20:25:27.976Z,100.63
2022-12-09T20:27:57.364Z,93.20
2022-12-09T20:30:27.599Z,89.97
2022-12-09T20:33:12.866Z,94.13
2022-12-09T20:35:41.215Z,93.07
2022-12-09T20:38:12.666Z,101.15
2022-12-09T20:40:41.174Z,99.07
2022-12-09T20:43:09.573Z,95.82
2022-12-09T20:45:41.895Z,103.15
2022-12-09T20:48:13.962Z,99.57
2022-12-09T20:51:03.830Z,98.80
2022-12-09T20:53:47.979Z,98.15
2022-12-09T20:56:30.519Z,93.78
2022-12-09T20:59:10.749Z,101.32
2022-12-09T21:01:43.675Z,101.80
2022-12-09T21:04:15.648Z,114.57
2022-12-09T21:06:46.353Z,103.60
2022-12-09T21:09:18.540Z,102.07
2022-12-09T21:11:52.053Z,105.15
2022-12-09T21:14:20.615Z,103.28
2022-12-09T21:16:51.192Z,104.45
2022-12-09T21:19:24.383Z,95.88
2022-12-09T21:21:54.401Z,106.35
2022-12-09T21:24:24.562Z,89.68
2022-12-09T21:26:55.494Z,104.60
2022-12-09T21:29:30.127Z,108.55
2022-12-09T21:32:02.953Z,105.07
2022-12-09T21:34:46.082Z,108.57
2022-12-09T21:37:20.775Z,110.57
2022-12-09T21:40:02.450Z,108.32
2022-12-09T21:42:50.273Z,105.90
2022-12-09T21:45:38.009Z,101.38
2022-12-09T21:48:25.605Z,104.22
2022-12-09T21:51:13.924Z,93.53
2022-12-09T21:53:47.021Z,101.50
2022-12-09T21:56:19.450Z,109.60
2022-12-09T21:58:51.095Z,102.40
2022-12-09T22:01:21.260Z,105.70
2022-12-09T22:03:56.485Z,113.40
2022-12-09T22:06:25.336Z,99.65
2022-12-09T22:08:53.988Z,100.30
2022-12-09T22:11:24.238Z,97.88
2022-12-09T22:14:06.431Z,101.25
2022-12-09T22:16:39.865Z,93.22
2022-12-09T22:19:27.673Z,105.90
2022-12-09T22:22:17.591Z,95.78
2022-12-09T22:25:01.761Z,103.80
2022-12-09T22:27:37.619Z,103.43
2022-12-09T22:30:06.740Z,100.38
2022-12-09T22:32:54.606Z,95.75
2022-12-09T22:35:37.322Z,93.15
2022-12-09T22:38:28.342Z,94.43
2022-12-09T22:41:17.091Z,97.32
2022-12-09T22:44:00.856Z,98.03
2022-12-09T22:46:51.452Z,88.68
2022-12-09T22:49:20.552Z,99.05
2022-12-09T22:51:50.150Z,103.90
2022-12-09T22:54:18.534Z,96.45
2022-12-09T22:56:47.261Z,100.82
2022-12-09T22:59:19.043Z,102.97
2022-12-09T23:01:48.288Z,97.13
2022-12-09T23:04:23.113Z,109.13
2022-12-09T23:07:10.765Z,93.03
2022-12-09T23:09:39.437Z,96.68
2022-12-09T23:12:09.380Z,98.53
2022-12-09T23:14:40.555Z,97.22
2022-12-09T23:17:13.846Z,87.13
2022-12-09T23:19:44.551Z,85.72
2022-12-09T23:22:13.463Z,96.57
2022-12-09T23:24:44.386Z,91.07
2022-12-09T23:27:34.407Z,91.00
2022-12-09T23:30:21.998Z,92.10
2022-12-09T23:33:12.010Z,86.22
2022-12-09T23:35:59.627Z,81.70
2022-12-09T23:38:31.494Z,84.30
2022-12-09T23:41:03.516Z,81.47
2022-12-09T23:43:33.357Z,77.65
2022-12-09T23:46:03.394Z,80.38
2022-12-09T23:48:35.778Z,104.70
2022-12-09T23:51:17.775Z,95.57
2022-12-09T23:53:47.075Z,92.97
2022-12-09T23:56:18.341Z,90.45
2022-12-09T23:59:09.765Z,104.25
